createdAt,value
2023-05-14T00:01:03.003Z,11.95
2023-05-14T00:04:12.731Z,12.06
2023-05-14T00:07:21.327Z,12.11
2023-05-14T00:10:27.981Z,12.07
2023-05-14T00:13:40.458Z,12.11
2023-05-14T00:16:53.130Z,12.10
2023-05-14T00:20:07.700Z,11.97
2023-05-14T00:23:22.452Z,12.01
2023-05-14T00:26:29.262Z,12.04
2023-05-14T00:29:33.827Z,11.65
2023-05-14T00:32:47.562Z,11.79
2023-05-14T00:35:52.548Z,11.96
2023-05-14T00:38:56.644Z,11.92
2023-05-14T00:42:01.168Z,12.13
2023-05-14T00:45:04.114Z,11.91
2023-05-14T00:48:07.416Z,11.87
2023-05-14T00:51:10.143Z,11.91
2023-05-14T00:54:13.858Z,11.92
2023-05-14T00:57:19.596Z,11.86
2023-05-14T01:00:28.678Z,11.91
2023-05-14T01:03:37.887Z,11.72
2023-05-14T01:06:52.837Z,11.93
2023-05-14T01:10:47.076Z,11.83
2023-05-14T01:13:57.216Z,11.85
2023-05-14T01:17:04.507Z,11.86
2023-05-14T01:20:11.047Z,11.79
2023-05-14T01:23:22.811Z,11.68
2023-05-14T01:26:49.319Z,11.73
2023-05-14T01:33:43.465Z,11.75
2023-05-14T01:36:53.091Z,11.64
2023-05-14T01:40:01.078Z,11.67
2023-05-14T01:43:13.294Z,11.69
2023-05-14T01:46:49.188Z,11.56
2023-05-14T01:49:58.895Z,11.64
2023-05-14T01:53:04.653Z,11.47
2023-05-14T01:56:08.442Z,11.65
2023-05-14T01:59:12.722Z,11.61
2023-05-14T02:02:26.462Z,11.69
2023-05-14T02:05:32.077Z,11.69
2023-05-14T02:08:45.080Z,11.68
2023-05-14T02:11:57.582Z,11.68
2023-05-14T02:15:09.756Z,11.62
2023-05-14T02:18:32.500Z,11.64
2023-05-14T02:21:51.417Z,11.67
2023-05-14T02:25:01.963Z,11.70
2023-05-14T02:28:08.422Z,11.66
2023-05-14T02:31:14.835Z,11.79
2023-05-14T02:34:18.558Z,11.67
2023-05-14T02:37:28.181Z,11.77
2023-05-14T02:40:49.471Z,11.71
2023-05-14T02:44:12.915Z,11.53
2023-05-14T02:54:27.849Z,11.65
2023-05-14T02:57:46.853Z,11.50
2023-05-14T03:01:15.341Z,11.53
2023-05-14T03:04:31.829Z,11.75
2023-05-14T03:11:23.104Z,11.60
2023-05-14T03:19:46.992Z,11.78
2023-05-14T03:23:20.557Z,11.77
2023-05-14T03:30:30.234Z,11.86
2023-05-14T03:34:13.936Z,11.49
2023-05-14T03:38:06.063Z,11.78
2023-05-14T03:41:24.880Z,11.66
2023-05-14T03:52:33.716Z,11.78
2023-05-14T04:01:12.060Z,11.57
2023-05-14T04:04:32.529Z,11.75
2023-05-14T04:08:27.361Z,11.41
2023-05-14T04:12:12.294Z,11.42
2023-05-14T04:16:13.077Z,11.72
2023-05-14T04:24:03.236Z,11.67
2023-05-14T04:27:27.723Z,11.63
2023-05-14T04:31:06.085Z,11.45
2023-05-14T04:38:43.785Z,11.39
2023-05-14T04:42:08.036Z,11.39
2023-05-14T04:50:35.250Z,11.79
2023-05-14T04:54:11.460Z,11.68
2023-05-14T04:58:14.819Z,11.50
2023-05-14T05:19:59.727Z,11.68
2023-05-14T05:28:31.650Z,11.64
2023-05-14T05:33:16.230Z,11.63
2023-05-14T06:10:47.694Z,11.61
2023-05-14T06:22:59.008Z,11.61
2023-05-14T06:26:15.118Z,11.56
2023-05-14T06:29:26.751Z,11.38
2023-05-14T06:32:54.686Z,11.41
2023-05-14T06:36:10.139Z,11.47
2023-05-14T06:39:16.591Z,11.50
2023-05-14T06:42:28.542Z,11.34
2023-05-14T06:45:49.199Z,11.26
2023-05-14T06:48:59.780Z,11.64
2023-05-14T06:52:04.174Z,11.62
2023-05-14T06:55:11.367Z,11.54
2023-05-14T06:58:22.300Z,11.70
2023-05-14T07:01:36.308Z,11.76
2023-05-14T07:04:53.137Z,11.56
2023-05-14T07:07:59.264Z,11.75
2023-05-14T07:11:07.457Z,11.91
2023-05-14T07:14:11.364Z,12.04
2023-05-14T07:17:23.116Z,11.86
2023-05-14T07:20:27.555Z,11.97
2023-05-14T07:23:36.740Z,12.23
2023-05-14T07:26:51.221Z,12.00
2023-05-14T07:30:14.918Z,12.12
2023-05-14T07:33:36.564Z,12.38
2023-05-14T07:36:49.110Z,12.40
2023-05-14T07:39:58.730Z,12.23
2023-05-14T07:43:24.271Z,12.35
2023-05-14T07:51:38.594Z,12.41
2023-05-14T08:05:54.363Z,12.71
2023-05-14T08:09:10.269Z,12.63
2023-05-14T08:12:32.241Z,12.72
2023-05-14T08:16:13.080Z,12.60
2023-05-14T08:23:00.058Z,12.67
2023-05-14T08:26:14.496Z,12.47
2023-05-14T08:29:22.686Z,12.52
2023-05-14T08:32:31.934Z,12.50
2023-05-14T08:35:45.755Z,12.47
2023-05-14T08:39:09.702Z,12.56
2023-05-14T08:42:33.108Z,12.32
2023-05-14T08:45:49.727Z,12.56
2023-05-14T08:49:09.040Z,12.60
2023-05-14T08:52:30.838Z,12.61
2023-05-14T08:55:59.382Z,12.73
2023-05-14T08:59:08.747Z,12.66
2023-05-14T09:02:34.823Z,12.53
2023-05-14T09:05:55.001Z,12.66
2023-05-14T09:09:01.261Z,12.77
2023-05-14T09:12:09.027Z,12.83
2023-05-14T09:15:22.566Z,12.67
2023-05-14T09:18:45.767Z,12.73
2023-05-14T09:22:03.449Z,12.70
2023-05-14T09:25:25.691Z,12.79
2023-05-14T09:28:56.293Z,12.94
2023-05-14T09:32:16.872Z,12.75
2023-05-14T09:35:28.138Z,12.77
2023-05-14T09:38:51.424Z,12.89
2023-05-14T09:42:01.100Z,12.99
2023-05-14T09:45:11.531Z,12.90
2023-05-14T09:48:20.380Z,13.01
2023-05-14T09:51:24.324Z,12.89
2023-05-14T09:54:35.700Z,12.98
2023-05-14T09:57:39.796Z,13.00
2023-05-14T10:00:51.592Z,13.02
2023-05-14T10:04:00.129Z,12.93
2023-05-14T10:07:04.570Z,12.89
2023-05-14T10:10:12.346Z,12.91
2023-05-14T10:13:20.960Z,12.85
2023-05-14T10:16:34.885Z,12.80
2023-05-14T10:19:41.043Z,12.88
2023-05-14T10:22:50.433Z,12.92
2023-05-14T10:25:57.198Z,12.95
2023-05-14T10:29:01.604Z,13.08
2023-05-14T10:32:07.534Z,13.06
2023-05-14T10:35:23.812Z,13.13
2023-05-14T10:38:28.633Z,13.16
2023-05-14T10:41:46.641Z,13.08
2023-05-14T10:45:07.763Z,12.97
2023-05-14T10:48:12.489Z,13.04
2023-05-14T10:51:24.031Z,12.97
2023-05-14T10:54:36.112Z,13.15
2023-05-14T10:57:47.863Z,13.18
2023-05-14T11:01:09.270Z,13.24
2023-05-14T11:04:28.812Z,13.25
2023-05-14T11:07:49.795Z,13.24
2023-05-14T11:10:57.795Z,13.31
2023-05-14T11:14:08.464Z,13.29
2023-05-14T11:17:45.968Z,13.31
2023-05-14T11:21:28.970Z,13.32
2023-05-14T11:25:24.483Z,13.20
2023-05-14T11:32:22.688Z,13.21
2023-05-14T11:35:27.411Z,13.20
2023-05-14T11:38:50.045Z,13.16
2023-05-14T11:42:06.523Z,13.12
2023-05-14T11:45:34.758Z,13.08
2023-05-14T11:52:15.833Z,12.90
2023-05-14T11:55:23.807Z,12.92
2023-05-14T12:02:03.656Z,12.81
2023-05-14T12:05:11.736Z,12.78
2023-05-14T12:08:43.200Z,12.74
2023-05-14T12:12:02.457Z,12.70
2023-05-14T12:15:34.418Z,12.70
2023-05-14T12:18:55.917Z,12.73
2023-05-14T12:22:13.312Z,12.75
2023-05-14T12:25:24.883Z,12.57
2023-05-14T12:28:38.587Z,12.73
2023-05-14T12:32:03.570Z,12.63
2023-05-14T12:35:17.283Z,12.57
2023-05-14T12:38:29.983Z,12.61
2023-05-14T12:41:55.668Z,12.38
2023-05-14T12:45:07.477Z,12.49
2023-05-14T12:48:21.465Z,12.46
2023-05-14T12:51:31.605Z,12.51
2023-05-14T12:54:44.943Z,12.55
2023-05-14T12:57:58.735Z,12.33
2023-05-14T13:01:11.180Z,12.49
2023-05-14T13:08:02.885Z,12.37
2023-05-14T13:11:09.771Z,12.46
2023-05-14T13:14:43.745Z,12.46
2023-05-14T13:18:25.635Z,12.46
2023-05-14T13:21:44.532Z,12.35
2023-05-14T13:28:34.899Z,12.46
2023-05-14T13:31:49.543Z,12.17
2023-05-14T13:35:12.067Z,12.20
2023-05-14T13:42:12.778Z,12.52
2023-05-14T13:45:25.904Z,12.54
2023-05-14T13:48:45.192Z,12.49
2023-05-14T13:51:56.673Z,12.43
2023-05-14T13:55:26.537Z,12.42
2023-05-14T13:58:33.612Z,12.45
2023-05-14T14:01:55.572Z,12.46
2023-05-14T14:05:05.363Z,12.16
2023-05-14T14:08:23.457Z,12.46
2023-05-14T14:11:35.456Z,12.48
2023-05-14T14:14:54.584Z,12.46
2023-05-14T14:18:29.232Z,12.48
2023-05-14T14:21:46.300Z,12.49
2023-05-14T14:25:13.183Z,12.47
2023-05-14T14:28:26.086Z,12.31
2023-05-14T14:31:44.851Z,12.45
2023-05-14T14:34:50.678Z,12.45
2023-05-14T14:38:01.308Z,12.43
2023-05-14T14:41:31.511Z,12.38
2023-05-14T14:45:01.392Z,12.35
2023-05-14T14:48:36.797Z,12.30
2023-05-14T14:55:32.287Z,12.19
2023-05-14T14:59:01.559Z,11.97
2023-05-14T15:02:48.241Z,12.03
2023-05-14T15:06:31.118Z,11.68
2023-05-14T15:09:51.484Z,11.82
2023-05-14T15:13:15.663Z,11.94
2023-05-14T15:16:35.471Z,11.91
2023-05-14T15:19:45.925Z,11.57
2023-05-14T15:23:16.237Z,11.76
2023-05-14T15:26:29.980Z,11.84
2023-05-14T15:30:05.135Z,11.68
2023-05-14T15:33:24.015Z,11.65
2023-05-14T15:36:42.850Z,11.80
2023-05-14T15:39:52.249Z,11.82
2023-05-14T15:43:05.759Z,11.58
2023-05-14T15:46:18.586Z,11.77
2023-05-14T15:49:27.963Z,11.76
2023-05-14T15:52:52.953Z,11.78
2023-05-14T15:56:23.638Z,11.43
2023-05-14T15:59:31.852Z,11.59
2023-05-14T16:02:35.454Z,11.74
2023-05-14T16:05:48.696Z,11.66
2023-05-14T16:08:58.748Z,11.69
2023-05-14T16:12:04.519Z,11.71
2023-05-14T16:15:09.541Z,11.59
2023-05-14T16:18:16.810Z,11.46
2023-05-14T16:21:25.962Z,11.79
2023-05-14T16:24:28.886Z,11.58
2023-05-14T16:27:33.771Z,11.81
2023-05-14T16:30:37.161Z,11.81
2023-05-14T16:33:52.614Z,11.82
2023-05-14T16:37:00.196Z,11.52
2023-05-14T16:40:03.909Z,11.86
2023-05-14T16:43:13.069Z,11.72
2023-05-14T16:46:19.824Z,11.88
2023-05-14T16:49:25.664Z,11.74
2023-05-14T16:52:51.990Z,11.83
2023-05-14T16:56:20.133Z,11.90
2023-05-14T16:59:46.459Z,11.76
2023-05-14T17:03:03.729Z,11.73
2023-05-14T17:06:15.890Z,11.90
2023-05-14T17:09:24.569Z,11.90
2023-05-14T17:12:37.294Z,11.99
2023-05-14T17:15:50.030Z,12.01
2023-05-14T17:18:56.569Z,11.90
2023-05-14T17:22:01.039Z,11.66
2023-05-14T17:25:06.487Z,11.97
2023-05-14T17:28:26.852Z,11.97
2023-05-14T17:31:33.945Z,11.86
2023-05-14T17:34:50.738Z,11.77
2023-05-14T17:38:01.081Z,11.81
2023-05-14T17:41:23.350Z,11.66
2023-05-14T17:44:33.076Z,11.83
2023-05-14T17:47:40.921Z,11.73
2023-05-14T17:50:48.138Z,11.97
2023-05-14T17:54:02.989Z,11.93
2023-05-14T17:57:07.797Z,11.85
2023-05-14T18:00:14.048Z,11.80
2023-05-14T18:03:20.625Z,11.90
2023-05-14T18:06:30.321Z,11.85
2023-05-14T18:09:39.235Z,12.06
2023-05-14T18:12:50.504Z,12.08
2023-05-14T18:16:04.013Z,12.09
2023-05-14T18:19:21.424Z,12.04
2023-05-14T18:22:35.031Z,12.07
2023-05-14T18:26:34.218Z,11.79
2023-05-14T18:33:21.504Z,11.96
2023-05-14T18:39:54.856Z,12.10
2023-05-14T18:46:46.156Z,11.95
2023-05-14T18:49:59.564Z,12.14
2023-05-14T18:53:23.818Z,12.17
2023-05-14T18:56:55.006Z,11.90
2023-05-14T19:04:26.455Z,12.05
2023-05-14T19:08:13.287Z,11.95
2023-05-14T19:20:29.487Z,12.27
2023-05-14T19:27:48.999Z,12.08
2023-05-14T19:31:14.397Z,12.20
2023-05-14T19:34:45.423Z,12.24
2023-05-14T19:38:21.825Z,12.29
2023-05-14T19:46:21.704Z,12.38
2023-05-14T19:50:27.186Z,12.08
2023-05-14T19:57:45.253Z,12.20
2023-05-14T20:01:56.084Z,12.32
2023-05-14T20:05:57.581Z,12.36
2023-05-14T20:09:33.213Z,12.41
2023-05-14T20:12:59.627Z,12.26
2023-05-14T20:16:20.827Z,12.39
2023-05-14T20:19:49.654Z,12.40
2023-05-14T20:23:25.495Z,12.33
2023-05-14T20:31:11.597Z,12.11
2023-05-14T20:35:11.679Z,12.24
2023-05-14T20:38:30.063Z,12.12
2023-05-14T20:41:52.027Z,12.24
2023-05-14T20:45:06.064Z,12.30
2023-05-14T20:51:51.753Z,12.27
2023-05-14T20:55:00.852Z,12.25
2023-05-14T20:58:12.124Z,12.15
2023-05-14T21:01:19.227Z,12.34
2023-05-14T21:04:30.308Z,12.39
2023-05-14T21:07:37.639Z,12.36
2023-05-14T21:10:48.175Z,12.07
2023-05-14T21:13:54.568Z,12.37
2023-05-14T21:16:57.806Z,12.42
2023-05-14T21:20:04.064Z,12.42
2023-05-14T21:23:13.597Z,12.43
2023-05-14T21:26:29.622Z,12.41
2023-05-14T21:29:39.472Z,12.41
2023-05-14T21:32:42.836Z,12.41
2023-05-14T21:35:54.238Z,12.38
2023-05-14T21:38:58.470Z,12.36
2023-05-14T21:42:17.513Z,12.35
2023-05-14T21:45:30.841Z,12.01
2023-05-14T21:48:58.145Z,11.98
2023-05-14T21:56:01.730Z,12.26
2023-05-14T21:59:39.596Z,12.13
2023-05-14T22:02:55.437Z,11.92
2023-05-14T22:06:15.220Z,11.95
2023-05-14T22:09:19.122Z,12.23
2023-05-14T22:12:34.973Z,12.07
2023-05-14T22:15:58.134Z,12.09
2023-05-14T22:19:33.527Z,12.28
2023-05-14T22:22:48.673Z,12.11
2023-05-14T22:26:00.246Z,12.34
2023-05-14T22:29:16.889Z,12.05
2023-05-14T22:32:25.974Z,12.33
2023-05-14T22:35:47.330Z,12.09
2023-05-14T22:39:01.184Z,12.33
2023-05-14T22:42:10.772Z,12.24
2023-05-14T22:45:15.385Z,12.32
2023-05-14T22:48:34.388Z,12.45
2023-05-14T22:52:01.956Z,12.18
2023-05-14T22:55:20.090Z,12.41
2023-05-14T22:58:52.742Z,12.41
2023-05-14T23:02:11.418Z,12.38
2023-05-14T23:05:27.066Z,12.39
2023-05-14T23:08:49.332Z,12.41
2023-05-14T23:12:18.187Z,12.24
2023-05-14T23:15:38.826Z,12.35
2023-05-14T23:19:07.513Z,12.16
2023-05-14T23:22:35.263Z,12.47
2023-05-14T23:26:10.267Z,12.45
2023-05-14T23:29:43.540Z,12.48
2023-05-14T23:33:04.598Z,12.27
2023-05-14T23:36:48.522Z,12.40
2023-05-14T23:44:11.696Z,12.38
2023-05-14T23:47:45.447Z,12.39
2023-05-14T23:51:42.056Z,12.39
2023-05-14T23:55:02.557Z,12.36
2023-05-14T23:58:41.827Z,12.43
